sensor_id;sensor_type;location;lat;lon;timestamp;P1;durP1;ratioP1;P2;durP2;ratioP2
70899;SDS011;67902;52.154;5.430;2023-04-23T00:01:06;68.68;;;25.52;;
70899;SDS011;67902;52.154;5.430;2023-04-23T00:06:05;64.43;;;25.80;;
70899;SDS011;67902;52.154;5.430;2023-04-23T00:08:33;68.25;;;25.70;;
70899;SDS011;67902;52.154;5.430;2023-04-23T00:11:00;69.45;;;24.63;;
70899;SDS011;67902;52.154;5.430;2023-04-23T00:13:27;72.28;;;26.50;;
70899;SDS011;67902;52.154;5.430;2023-04-23T00:15:54;68.25;;;25.00;;
70899;SDS011;67902;52.154;5.430;2023-04-23T00:18:21;67.13;;;25.15;;
70899;SDS011;67902;52.154;5.430;2023-04-23T00:20:47;71.20;;;25.20;;
70899;SDS011;67902;52.154;5.430;2023-04-23T00:23:14;68.38;;;25.85;;
70899;SDS011;67902;52.154;5.430;2023-04-23T00:25:40;69.32;;;24.85;;
70899;SDS011;67902;52.154;5.430;2023-04-23T00:28:07;75.50;;;26.98;;
70899;SDS011;67902;52.154;5.430;2023-04-23T00:30:33;74.35;;;27.17;;
70899;SDS011;67902;52.154;5.430;2023-04-23T00:33:00;73.35;;;27.52;;
70899;SDS011;67902;52.154;5.430;2023-04-23T00:35:27;78.28;;;29.10;;
70899;SDS011;67902;52.154;5.430;2023-04-23T00:37:53;79.07;;;27.77;;
70899;SDS011;67902;52.154;5.430;2023-04-23T00:40:20;74.57;;;27.17;;
70899;SDS011;67902;52.154;5.430;2023-04-23T00:42:49;70.88;;;27.48;;
70899;SDS011;67902;52.154;5.430;2023-04-23T00:45:18;70.53;;;26.88;;
70899;SDS011;67902;52.154;5.430;2023-04-23T00:47:45;74.80;;;26.63;;
70899;SDS011;67902;52.154;5.430;2023-04-23T00:50:13;71.00;;;26.27;;
70899;SDS011;67902;52.154;5.430;2023-04-23T00:52:40;67.97;;;25.95;;
70899;SDS011;67902;52.154;5.430;2023-04-23T00:55:06;67.80;;;24.38;;
70899;SDS011;67902;52.154;5.430;2023-04-23T00:57:34;68.20;;;26.00;;
70899;SDS011;67902;52.154;5.430;2023-04-23T01:00:02;63.70;;;24.50;;
70899;SDS011;67902;52.154;5.430;2023-04-23T01:02:30;67.90;;;26.13;;
70899;SDS011;67902;52.154;5.430;2023-04-23T01:04:58;75.50;;;26.55;;
70899;SDS011;67902;52.154;5.430;2023-04-23T01:07:26;74.85;;;25.45;;
70899;SDS011;67902;52.154;5.430;2023-04-23T01:09:53;60.95;;;24.48;;
70899;SDS011;67902;52.154;5.430;2023-04-23T01:12:19;72.05;;;26.63;;
70899;SDS011;67902;52.154;5.430;2023-04-23T01:14:46;72.90;;;26.90;;
70899;SDS011;67902;52.154;5.430;2023-04-23T01:17:12;75.10;;;28.45;;
70899;SDS011;67902;52.154;5.430;2023-04-23T01:19:39;76.95;;;26.70;;
70899;SDS011;67902;52.154;5.430;2023-04-23T01:22:09;69.35;;;26.08;;
70899;SDS011;67902;52.154;5.430;2023-04-23T01:24:36;67.07;;;24.88;;
70899;SDS011;67902;52.154;5.430;2023-04-23T01:29:31;67.53;;;24.13;;
70899;SDS011;67902;52.154;5.430;2023-04-23T01:31:58;65.32;;;24.77;;
70899;SDS011;67902;52.154;5.430;2023-04-23T01:34:24;70.38;;;25.60;;
70899;SDS011;67902;52.154;5.430;2023-04-23T01:36:51;62.50;;;24.42;;
70899;SDS011;67902;52.154;5.430;2023-04-23T01:39:19;61.40;;;24.33;;
70899;SDS011;67902;52.154;5.430;2023-04-23T01:41:45;65.65;;;24.83;;
70899;SDS011;67902;52.154;5.430;2023-04-23T01:44:12;69.30;;;26.30;;
70899;SDS011;67902;52.154;5.430;2023-04-23T01:46:38;68.15;;;24.88;;
70899;SDS011;67902;52.154;5.430;2023-04-23T01:49:05;76.80;;;26.52;;
70899;SDS011;67902;52.154;5.430;2023-04-23T01:51:32;67.72;;;25.40;;
70899;SDS011;67902;52.154;5.430;2023-04-23T01:53:58;64.93;;;24.30;;
70899;SDS011;67902;52.154;5.430;2023-04-23T01:56:25;67.80;;;24.92;;
70899;SDS011;67902;52.154;5.430;2023-04-23T01:58:53;66.05;;;24.27;;
70899;SDS011;67902;52.154;5.430;2023-04-23T02:01:19;73.28;;;24.90;;
70899;SDS011;67902;52.154;5.430;2023-04-23T02:03:47;67.00;;;24.98;;
70899;SDS011;67902;52.154;5.430;2023-04-23T02:06:15;60.83;;;23.48;;
70899;SDS011;67902;52.154;5.430;2023-04-23T02:08:42;68.05;;;25.48;;
70899;SDS011;67902;52.154;5.430;2023-04-23T02:11:09;71.53;;;25.00;;
70899;SDS011;67902;52.154;5.430;2023-04-23T02:13:35;65.32;;;24.75;;
70899;SDS011;67902;52.154;5.430;2023-04-23T02:16:01;73.32;;;27.25;;
70899;SDS011;67902;52.154;5.430;2023-04-23T02:18:28;69.65;;;24.83;;
70899;SDS011;67902;52.154;5.430;2023-04-23T02:20:54;63.67;;;25.58;;
70899;SDS011;67902;52.154;5.430;2023-04-23T02:25:48;62.85;;;23.70;;
70899;SDS011;67902;52.154;5.430;2023-04-23T02:28:16;62.90;;;23.95;;
70899;SDS011;67902;52.154;5.430;2023-04-23T02:30:42;67.68;;;25.42;;
70899;SDS011;67902;52.154;5.430;2023-04-23T02:33:11;64.72;;;24.35;;
70899;SDS011;67902;52.154;5.430;2023-04-23T02:35:37;61.17;;;24.80;;
70899;SDS011;67902;52.154;5.430;2023-04-23T02:38:04;66.10;;;24.38;;
70899;SDS011;67902;52.154;5.430;2023-04-23T02:40:30;67.95;;;24.63;;
70899;SDS011;67902;52.154;5.430;2023-04-23T02:42:57;74.05;;;26.77;;
70899;SDS011;67902;52.154;5.430;2023-04-23T02:45:23;72.53;;;25.65;;
70899;SDS011;67902;52.154;5.430;2023-04-23T02:47:49;67.90;;;25.65;;
70899;SDS011;67902;52.154;5.430;2023-04-23T02:50:18;65.50;;;24.52;;
70899;SDS011;67902;52.154;5.430;2023-04-23T02:52:44;67.25;;;26.30;;
70899;SDS011;67902;52.154;5.430;2023-04-23T02:55:12;68.25;;;25.95;;
70899;SDS011;67902;52.154;5.430;2023-04-23T02:57:39;71.57;;;26.85;;
70899;SDS011;67902;52.154;5.430;2023-04-23T03:00:06;70.00;;;25.00;;
70899;SDS011;67902;52.154;5.430;2023-04-23T03:02:33;67.90;;;25.48;;
70899;SDS011;67902;52.154;5.430;2023-04-23T03:05:00;64.68;;;25.05;;
70899;SDS011;67902;52.154;5.430;2023-04-23T03:07:26;71.28;;;25.00;;
70899;SDS011;67902;52.154;5.430;2023-04-23T03:09:52;67.68;;;25.05;;
70899;SDS011;67902;52.154;5.430;2023-04-23T03:12:19;65.75;;;24.58;;
70899;SDS011;67902;52.154;5.430;2023-04-23T03:14:45;62.85;;;23.05;;
70899;SDS011;67902;52.154;5.430;2023-04-23T03:17:12;62.70;;;23.85;;
70899;SDS011;67902;52.154;5.430;2023-04-23T03:19:38;61.72;;;25.75;;
70899;SDS011;67902;52.154;5.430;2023-04-23T03:22:04;59.63;;;23.30;;
70899;SDS011;67902;52.154;5.430;2023-04-23T03:24:31;65.93;;;23.70;;
70899;SDS011;67902;52.154;5.430;2023-04-23T03:26:58;59.72;;;23.85;;
70899;SDS011;67902;52.154;5.430;2023-04-23T03:29:25;57.30;;;22.77;;
70899;SDS011;67902;52.154;5.430;2023-04-23T03:31:52;59.75;;;23.70;;
70899;SDS011;67902;52.154;5.430;2023-04-23T03:34:18;65.32;;;22.10;;
70899;SDS011;67902;52.154;5.430;2023-04-23T03:36:44;65.53;;;21.70;;
70899;SDS011;67902;52.154;5.430;2023-04-23T03:39:13;60.72;;;23.48;;
70899;SDS011;67902;52.154;5.430;2023-04-23T03:41:40;58.10;;;21.13;;
70899;SDS011;67902;52.154;5.430;2023-04-23T03:44:07;55.33;;;21.13;;
70899;SDS011;67902;52.154;5.430;2023-04-23T03:46:33;54.20;;;21.65;;
70899;SDS011;67902;52.154;5.430;2023-04-23T03:48:59;48.30;;;18.30;;
70899;SDS011;67902;52.154;5.430;2023-04-23T03:51:26;48.08;;;18.67;;
70899;SDS011;67902;52.154;5.430;2023-04-23T03:53:53;51.50;;;20.50;;
70899;SDS011;67902;52.154;5.430;2023-04-23T03:56:19;49.55;;;20.20;;
70899;SDS011;67902;52.154;5.430;2023-04-23T03:58:46;45.97;;;18.02;;
70899;SDS011;67902;52.154;5.430;2023-04-23T04:01:12;44.53;;;17.98;;
70899;SDS011;67902;52.154;5.430;2023-04-23T04:03:39;44.25;;;18.63;;
70899;SDS011;67902;52.154;5.430;2023-04-23T04:06:06;47.75;;;18.20;;
70899;SDS011;67902;52.154;5.430;2023-04-23T04:08:33;42.40;;;17.83;;
70899;SDS011;67902;52.154;5.430;2023-04-23T04:10:59;43.85;;;18.70;;
70899;SDS011;67902;52.154;5.430;2023-04-23T04:13:26;46.50;;;17.98;;
70899;SDS011;67902;52.154;5.430;2023-04-23T04:15:52;45.42;;;17.95;;
70899;SDS011;67902;52.154;5.430;2023-04-23T04:18:19;41.42;;;17.50;;
70899;SDS011;67902;52.154;5.430;2023-04-23T04:20:45;39.63;;;16.75;;
70899;SDS011;67902;52.154;5.430;2023-04-23T04:23:12;42.85;;;18.13;;
70899;SDS011;67902;52.154;5.430;2023-04-23T04:25:38;44.97;;;17.30;;
70899;SDS011;67902;52.154;5.430;2023-04-23T04:28:06;46.13;;;18.90;;
70899;SDS011;67902;52.154;5.430;2023-04-23T04:30:34;42.00;;;17.10;;
70899;SDS011;67902;52.154;5.430;2023-04-23T04:33:01;41.88;;;17.67;;
70899;SDS011;67902;52.154;5.430;2023-04-23T04:35:28;38.70;;;15.80;;
70899;SDS011;67902;52.154;5.430;2023-04-23T04:37:55;40.65;;;17.30;;
70899;SDS011;67902;52.154;5.430;2023-04-23T04:40:21;38.95;;;16.25;;
70899;SDS011;67902;52.154;5.430;2023-04-23T04:42:48;40.38;;;17.23;;
70899;SDS011;67902;52.154;5.430;2023-04-23T04:45:14;42.25;;;17.27;;
70899;SDS011;67902;52.154;5.430;2023-04-23T04:47:42;42.00;;;17.42;;
70899;SDS011;67902;52.154;5.430;2023-04-23T04:50:08;39.03;;;16.65;;
70899;SDS011;67902;52.154;5.430;2023-04-23T04:52:36;35.25;;;14.38;;
70899;SDS011;67902;52.154;5.430;2023-04-23T04:55:02;41.10;;;17.10;;
70899;SDS011;67902;52.154;5.430;2023-04-23T04:57:30;45.45;;;16.90;;
70899;SDS011;67902;52.154;5.430;2023-04-23T04:59:56;36.50;;;15.60;;
70899;SDS011;67902;52.154;5.430;2023-04-23T05:02:22;37.60;;;16.52;;
70899;SDS011;67902;52.154;5.430;2023-04-23T05:04:49;37.40;;;15.88;;
70899;SDS011;67902;52.154;5.430;2023-04-23T05:07:16;39.45;;;16.02;;
70899;SDS011;67902;52.154;5.430;2023-04-23T05:09:42;41.83;;;16.73;;
70899;SDS011;67902;52.154;5.430;2023-04-23T05:14:37;38.45;;;15.82;;
70899;SDS011;67902;52.154;5.430;2023-04-23T05:17:03;38.35;;;16.35;;
70899;SDS011;67902;52.154;5.430;2023-04-23T05:19:30;36.50;;;15.88;;
70899;SDS011;67902;52.154;5.430;2023-04-23T05:21:57;34.00;;;15.57;;
70899;SDS011;67902;52.154;5.430;2023-04-23T05:24:24;36.13;;;16.17;;
70899;SDS011;67902;52.154;5.430;2023-04-23T05:26:50;36.47;;;16.10;;
70899;SDS011;67902;52.154;5.430;2023-04-23T05:29:16;36.17;;;15.63;;
70899;SDS011;67902;52.154;5.430;2023-04-23T05:31:44;37.13;;;16.70;;
70899;SDS011;67902;52.154;5.430;2023-04-23T05:34:11;35.30;;;15.65;;
70899;SDS011;67902;52.154;5.430;2023-04-23T05:36:37;34.50;;;15.80;;
70899;SDS011;67902;52.154;5.430;2023-04-23T05:39:05;38.42;;;16.63;;
70899;SDS011;67902;52.154;5.430;2023-04-23T05:41:31;36.08;;;16.83;;
70899;SDS011;67902;52.154;5.430;2023-04-23T05:43:57;35.47;;;16.00;;
70899;SDS011;67902;52.154;5.430;2023-04-23T05:46:24;35.30;;;16.25;;
70899;SDS011;67902;52.154;5.430;2023-04-23T05:48:50;32.35;;;15.75;;
70899;SDS011;67902;52.154;5.430;2023-04-23T05:51:17;36.08;;;16.10;;
70899;SDS011;67902;52.154;5.430;2023-04-23T05:53:43;29.40;;;14.27;;
70899;SDS011;67902;52.154;5.430;2023-04-23T05:56:09;28.15;;;14.48;;
70899;SDS011;67902;52.154;5.430;2023-04-23T05:58:36;30.13;;;14.32;;
70899;SDS011;67902;52.154;5.430;2023-04-23T06:03:30;30.65;;;12.50;;
70899;SDS011;67902;52.154;5.430;2023-04-23T06:05:57;28.42;;;13.38;;
70899;SDS011;67902;52.154;5.430;2023-04-23T06:08:23;28.48;;;13.93;;
70899;SDS011;67902;52.154;5.430;2023-04-23T06:10:50;22.83;;;12.63;;
70899;SDS011;67902;52.154;5.430;2023-04-23T06:13:16;25.10;;;13.25;;
70899;SDS011;67902;52.154;5.430;2023-04-23T06:15:43;25.58;;;12.70;;
70899;SDS011;67902;52.154;5.430;2023-04-23T06:18:09;26.75;;;13.25;;
70899;SDS011;67902;52.154;5.430;2023-04-23T06:20:36;25.42;;;14.30;;
70899;SDS011;67902;52.154;5.430;2023-04-23T06:23:02;23.33;;;12.23;;
70899;SDS011;67902;52.154;5.430;2023-04-23T06:25:29;24.10;;;12.63;;
70899;SDS011;67902;52.154;5.430;2023-04-23T06:27:55;25.48;;;12.98;;
70899;SDS011;67902;52.154;5.430;2023-04-23T06:30:23;21.67;;;11.98;;
70899;SDS011;67902;52.154;5.430;2023-04-23T06:32:49;23.08;;;12.77;;
70899;SDS011;67902;52.154;5.430;2023-04-23T06:35:16;23.83;;;13.32;;
70899;SDS011;67902;52.154;5.430;2023-04-23T06:37:42;23.67;;;12.23;;
70899;SDS011;67902;52.154;5.430;2023-04-23T06:40:09;21.95;;;12.27;;
70899;SDS011;67902;52.154;5.430;2023-04-23T06:42:36;22.75;;;12.48;;
70899;SDS011;67902;52.154;5.430;2023-04-23T06:45:02;23.88;;;13.25;;
70899;SDS011;67902;52.154;5.430;2023-04-23T06:47:31;23.90;;;12.20;;
70899;SDS011;67902;52.154;5.430;2023-04-23T06:49:58;23.58;;;13.20;;
70899;SDS011;67902;52.154;5.430;2023-04-23T06:52:27;19.40;;;11.10;;
70899;SDS011;67902;52.154;5.430;2023-04-23T06:54:53;22.90;;;11.90;;
70899;SDS011;67902;52.154;5.430;2023-04-23T06:57:20;22.27;;;11.82;;
70899;SDS011;67902;52.154;5.430;2023-04-23T06:59:46;21.05;;;11.43;;
70899;SDS011;67902;52.154;5.430;2023-04-23T07:02:13;20.55;;;11.02;;
70899;SDS011;67902;52.154;5.430;2023-04-23T07:04:39;19.88;;;10.75;;
70899;SDS011;67902;52.154;5.430;2023-04-23T07:07:07;20.50;;;10.38;;
70899;SDS011;67902;52.154;5.430;2023-04-23T07:09:33;18.50;;;9.80;;
70899;SDS011;67902;52.154;5.430;2023-04-23T07:12:00;17.13;;;10.57;;
70899;SDS011;67902;52.154;5.430;2023-04-23T07:14:27;19.60;;;10.45;;
70899;SDS011;67902;52.154;5.430;2023-04-23T07:16:53;15.82;;;9.35;;
70899;SDS011;67902;52.154;5.430;2023-04-23T07:19:20;18.27;;;10.10;;
70899;SDS011;67902;52.154;5.430;2023-04-23T07:21:46;18.85;;;9.70;;
70899;SDS011;67902;52.154;5.430;2023-04-23T07:24:13;18.48;;;9.35;;
70899;SDS011;67902;52.154;5.430;2023-04-23T07:26:39;16.85;;;8.73;;
70899;SDS011;67902;52.154;5.430;2023-04-23T07:29:06;16.23;;;8.68;;
70899;SDS011;67902;52.154;5.430;2023-04-23T07:31:35;15.40;;;8.52;;
70899;SDS011;67902;52.154;5.430;2023-04-23T07:34:02;15.10;;;8.60;;
70899;SDS011;67902;52.154;5.430;2023-04-23T07:36:28;16.20;;;8.75;;
70899;SDS011;67902;52.154;5.430;2023-04-23T07:38:56;15.80;;;7.88;;
70899;SDS011;67902;52.154;5.430;2023-04-23T07:41:22;15.55;;;8.77;;
70899;SDS011;67902;52.154;5.430;2023-04-23T07:46:16;16.35;;;7.50;;
70899;SDS011;67902;52.154;5.430;2023-04-23T07:48:43;16.38;;;7.68;;
70899;SDS011;67902;52.154;5.430;2023-04-23T07:51:10;13.88;;;7.03;;
70899;SDS011;67902;52.154;5.430;2023-04-23T07:53:37;14.32;;;6.93;;
70899;SDS011;67902;52.154;5.430;2023-04-23T07:56:03;13.93;;;6.70;;
70899;SDS011;67902;52.154;5.430;2023-04-23T07:58:30;12.65;;;6.43;;
70899;SDS011;67902;52.154;5.430;2023-04-23T08:00:58;14.65;;;6.57;;
70899;SDS011;67902;52.154;5.430;2023-04-23T08:03:24;12.02;;;5.85;;
70899;SDS011;67902;52.154;5.430;2023-04-23T08:05:51;12.82;;;6.40;;
70899;SDS011;67902;52.154;5.430;2023-04-23T08:08:17;16.25;;;6.05;;
70899;SDS011;67902;52.154;5.430;2023-04-23T08:10:44;12.35;;;5.68;;
70899;SDS011;67902;52.154;5.430;2023-04-23T08:13:11;11.32;;;5.65;;
70899;SDS011;67902;52.154;5.430;2023-04-23T08:15:37;11.15;;;5.18;;
70899;SDS011;67902;52.154;5.430;2023-04-23T08:18:04;14.32;;;5.82;;
70899;SDS011;67902;52.154;5.430;2023-04-23T08:20:31;12.02;;;5.95;;
70899;SDS011;67902;52.154;5.430;2023-04-23T08:22:57;11.02;;;5.40;;
70899;SDS011;67902;52.154;5.430;2023-04-23T08:25:24;12.15;;;5.60;;
70899;SDS011;67902;52.154;5.430;2023-04-23T08:27:51;10.73;;;4.90;;
70899;SDS011;67902;52.154;5.430;2023-04-23T08:30:17;13.48;;;5.50;;
70899;SDS011;67902;52.154;5.430;2023-04-23T08:32:44;11.52;;;4.65;;
70899;SDS011;67902;52.154;5.430;2023-04-23T08:35:14;12.23;;;4.50;;
70899;SDS011;67902;52.154;5.430;2023-04-23T08:37:40;11.60;;;4.65;;
70899;SDS011;67902;52.154;5.430;2023-04-23T08:40:07;11.23;;;4.93;;
70899;SDS011;67902;52.154;5.430;2023-04-23T08:42:51;14.15;;;4.55;;
70899;SDS011;67902;52.154;5.430;2023-04-23T08:45:22;11.05;;;4.57;;
70899;SDS011;67902;52.154;5.430;2023-04-23T08:47:49;10.77;;;4.22;;
70899;SDS011;67902;52.154;5.430;2023-04-23T08:50:16;11.45;;;4.03;;
70899;SDS011;67902;52.154;5.430;2023-04-23T08:52:54;13.48;;;4.47;;
70899;SDS011;67902;52.154;5.430;2023-04-23T08:55:22;13.05;;;4.13;;
70899;SDS011;67902;52.154;5.430;2023-04-23T08:57:49;10.75;;;4.07;;
70899;SDS011;67902;52.154;5.430;2023-04-23T09:00:17;14.57;;;4.70;;
70899;SDS011;67902;52.154;5.430;2023-04-23T09:02:45;12.65;;;3.85;;
70899;SDS011;67902;52.154;5.430;2023-04-23T09:05:13;9.45;;;4.15;;
70899;SDS011;67902;52.154;5.430;2023-04-23T09:07:40;15.80;;;4.95;;
70899;SDS011;67902;52.154;5.430;2023-04-23T09:10:08;14.27;;;3.85;;
70899;SDS011;67902;52.154;5.430;2023-04-23T09:12:36;11.13;;;3.75;;
70899;SDS011;67902;52.154;5.430;2023-04-23T09:15:05;11.73;;;4.40;;
70899;SDS011;67902;52.154;5.430;2023-04-23T09:17:39;15.38;;;4.30;;
70899;SDS011;67902;52.154;5.430;2023-04-23T09:20:09;11.18;;;4.28;;
70899;SDS011;67902;52.154;5.430;2023-04-23T09:22:39;11.57;;;4.25;;
70899;SDS011;67902;52.154;5.430;2023-04-23T09:25:08;12.82;;;3.67;;
70899;SDS011;67902;52.154;5.430;2023-04-23T09:27:37;11.02;;;3.58;;
70899;SDS011;67902;52.154;5.430;2023-04-23T09:30:04;10.70;;;3.80;;
70899;SDS011;67902;52.154;5.430;2023-04-23T09:32:33;10.13;;;3.85;;
70899;SDS011;67902;52.154;5.430;2023-04-23T09:35:01;8.25;;;3.33;;
70899;SDS011;67902;52.154;5.430;2023-04-23T09:37:29;12.90;;;3.72;;
70899;SDS011;67902;52.154;5.430;2023-04-23T09:39:57;10.57;;;3.47;;
70899;SDS011;67902;52.154;5.430;2023-04-23T09:42:30;9.55;;;2.85;;
70899;SDS011;67902;52.154;5.430;2023-04-23T09:45:01;9.98;;;2.70;;
70899;SDS011;67902;52.154;5.430;2023-04-23T09:47:33;12.77;;;3.40;;
70899;SDS011;67902;52.154;5.430;2023-04-23T09:50:03;11.57;;;3.20;;
70899;SDS011;67902;52.154;5.430;2023-04-23T09:52:31;10.75;;;3.30;;
70899;SDS011;67902;52.154;5.430;2023-04-23T09:55:02;14.38;;;2.97;;
70899;SDS011;67902;52.154;5.430;2023-04-23T09:57:36;9.77;;;2.70;;
70899;SDS011;67902;52.154;5.430;2023-04-23T10:00:13;11.13;;;2.33;;
70899;SDS011;67902;52.154;5.430;2023-04-23T10:02:48;9.30;;;2.72;;
70899;SDS011;67902;52.154;5.430;2023-04-23T10:05:16;8.52;;;2.30;;
70899;SDS011;67902;52.154;5.430;2023-04-23T10:07:52;9.70;;;2.30;;
70899;SDS011;67902;52.154;5.430;2023-04-23T10:10:20;9.68;;;2.55;;
70899;SDS011;67902;52.154;5.430;2023-04-23T10:12:46;7.82;;;2.50;;
70899;SDS011;67902;52.154;5.430;2023-04-23T10:15:20;10.45;;;2.30;;
70899;SDS011;67902;52.154;5.430;2023-04-23T10:17:50;10.63;;;2.30;;
70899;SDS011;67902;52.154;5.430;2023-04-23T10:20:19;10.77;;;2.40;;
70899;SDS011;67902;52.154;5.430;2023-04-23T10:22:48;8.30;;;2.05;;
70899;SDS011;67902;52.154;5.430;2023-04-23T10:25:16;15.20;;;2.50;;
70899;SDS011;67902;52.154;5.430;2023-04-23T10:27:45;9.20;;;2.47;;
70899;SDS011;67902;52.154;5.430;2023-04-23T10:30:20;8.02;;;2.08;;
70899;SDS011;67902;52.154;5.430;2023-04-23T10:32:48;7.82;;;2.17;;
70899;SDS011;67902;52.154;5.430;2023-04-23T10:35:15;9.32;;;2.20;;
70899;SDS011;67902;52.154;5.430;2023-04-23T10:37:41;8.52;;;2.20;;
70899;SDS011;67902;52.154;5.430;2023-04-23T10:40:11;8.45;;;2.00;;
70899;SDS011;67902;52.154;5.430;2023-04-23T10:42:40;14.25;;;2.60;;
70899;SDS011;67902;52.154;5.430;2023-04-23T10:45:12;6.88;;;1.95;;
70899;SDS011;67902;52.154;5.430;2023-04-23T10:47:48;9.27;;;2.22;;
70899;SDS011;67902;52.154;5.430;2023-04-23T10:50:18;6.75;;;1.98;;
70899;SDS011;67902;52.154;5.430;2023-04-23T10:52:53;9.38;;;2.50;;
70899;SDS011;67902;52.154;5.430;2023-04-23T10:55:23;9.82;;;2.05;;
70899;SDS011;67902;52.154;5.430;2023-04-23T11:00:41;9.10;;;1.80;;
70899;SDS011;67902;52.154;5.430;2023-04-23T11:03:30;8.55;;;2.10;;
70899;SDS011;67902;52.154;5.430;2023-04-23T11:06:14;11.70;;;2.25;;
70899;SDS011;67902;52.154;5.430;2023-04-23T11:08:52;9.27;;;2.30;;
70899;SDS011;67902;52.154;5.430;2023-04-23T11:11:23;8.73;;;2.00;;
70899;SDS011;67902;52.154;5.430;2023-04-23T11:14:11;8.70;;;1.80;;
70899;SDS011;67902;52.154;5.430;2023-04-23T11:16:41;10.07;;;1.90;;
70899;SDS011;67902;52.154;5.430;2023-04-23T11:19:08;7.63;;;1.45;;
70899;SDS011;67902;52.154;5.430;2023-04-23T11:24:45;8.98;;;1.90;;
70899;SDS011;67902;52.154;5.430;2023-04-23T11:27:16;10.82;;;1.70;;
70899;SDS011;67902;52.154;5.430;2023-04-23T11:29:45;9.10;;;1.60;;
70899;SDS011;67902;52.154;5.430;2023-04-23T11:32:12;8.10;;;1.55;;
70899;SDS011;67902;52.154;5.430;2023-04-23T11:34:45;6.70;;;1.48;;
70899;SDS011;67902;52.154;5.430;2023-04-23T11:37:13;9.30;;;1.90;;
70899;SDS011;67902;52.154;5.430;2023-04-23T11:39:41;8.02;;;1.60;;
70899;SDS011;67902;52.154;5.430;2023-04-23T11:42:10;8.30;;;1.58;;
70899;SDS011;67902;52.154;5.430;2023-04-23T11:44:38;6.85;;;1.45;;
70899;SDS011;67902;52.154;5.430;2023-04-23T11:47:06;6.40;;;1.45;;
70899;SDS011;67902;52.154;5.430;2023-04-23T11:49:35;9.93;;;1.95;;
70899;SDS011;67902;52.154;5.430;2023-04-23T11:52:03;4.85;;;1.25;;
70899;SDS011;67902;52.154;5.430;2023-04-23T11:54:30;5.75;;;1.30;;
70899;SDS011;67902;52.154;5.430;2023-04-23T11:56:57;7.68;;;1.45;;
70899;SDS011;67902;52.154;5.430;2023-04-23T11:59:24;5.07;;;1.45;;
70899;SDS011;67902;52.154;5.430;2023-04-23T12:01:55;8.45;;;1.80;;
70899;SDS011;67902;52.154;5.430;2023-04-23T12:06:51;7.45;;;1.75;;
70899;SDS011;67902;52.154;5.430;2023-04-23T12:09:19;7.85;;;1.50;;
70899;SDS011;67902;52.154;5.430;2023-04-23T12:11:47;6.85;;;1.40;;
70899;SDS011;67902;52.154;5.430;2023-04-23T12:14:16;5.88;;;1.40;;
70899;SDS011;67902;52.154;5.430;2023-04-23T12:16:46;6.00;;;1.40;;
70899;SDS011;67902;52.154;5.430;2023-04-23T12:19:27;6.70;;;1.40;;
70899;SDS011;67902;52.154;5.430;2023-04-23T12:21:58;6.40;;;1.65;;
70899;SDS011;67902;52.154;5.430;2023-04-23T12:24:26;5.75;;;1.65;;
70899;SDS011;67902;52.154;5.430;2023-04-23T12:26:55;7.07;;;1.45;;
70899;SDS011;67902;52.154;5.430;2023-04-23T12:29:23;9.45;;;1.73;;
70899;SDS011;67902;52.154;5.430;2023-04-23T12:31:51;7.10;;;1.52;;
70899;SDS011;67902;52.154;5.430;2023-04-23T12:34:19;6.88;;;1.55;;
70899;SDS011;67902;52.154;5.430;2023-04-23T12:36:47;6.05;;;1.40;;
70899;SDS011;67902;52.154;5.430;2023-04-23T12:41:56;5.82;;;1.50;;
70899;SDS011;67902;52.154;5.430;2023-04-23T12:44:33;7.30;;;1.38;;
70899;SDS011;67902;52.154;5.430;2023-04-23T12:47:02;6.68;;;1.40;;
70899;SDS011;67902;52.154;5.430;2023-04-23T12:49:31;8.68;;;1.70;;
70899;SDS011;67902;52.154;5.430;2023-04-23T12:54:32;6.05;;;1.20;;
70899;SDS011;67902;52.154;5.430;2023-04-23T12:57:03;7.95;;;1.23;;
70899;SDS011;67902;52.154;5.430;2023-04-23T12:59:32;5.68;;;1.35;;
70899;SDS011;67902;52.154;5.430;2023-04-23T13:01:59;6.40;;;1.50;;
70899;SDS011;67902;52.154;5.430;2023-04-23T13:04:28;5.95;;;1.75;;
70899;SDS011;67902;52.154;5.430;2023-04-23T13:06:55;5.93;;;1.70;;
70899;SDS011;67902;52.154;5.430;2023-04-23T13:09:22;5.68;;;1.55;;
70899;SDS011;67902;52.154;5.430;2023-04-23T13:11:52;6.68;;;1.50;;
70899;SDS011;67902;52.154;5.430;2023-04-23T13:14:19;7.68;;;1.50;;
70899;SDS011;67902;52.154;5.430;2023-04-23T13:19:12;5.13;;;1.40;;
70899;SDS011;67902;52.154;5.430;2023-04-23T13:21:39;6.43;;;1.50;;
70899;SDS011;67902;52.154;5.430;2023-04-23T13:24:05;6.72;;;1.50;;
70899;SDS011;67902;52.154;5.430;2023-04-23T13:26:32;5.22;;;1.60;;
70899;SDS011;67902;52.154;5.430;2023-04-23T13:28:59;7.65;;;1.45;;
70899;SDS011;67902;52.154;5.430;2023-04-23T13:31:26;7.78;;;1.83;;
70899;SDS011;67902;52.154;5.430;2023-04-23T13:33:53;4.43;;;1.48;;
70899;SDS011;67902;52.154;5.430;2023-04-23T13:36:20;5.97;;;1.52;;
70899;SDS011;67902;52.154;5.430;2023-04-23T13:38:47;7.05;;;1.50;;
70899;SDS011;67902;52.154;5.430;2023-04-23T13:41:13;6.75;;;1.42;;
70899;SDS011;67902;52.154;5.430;2023-04-23T13:43:40;6.20;;;1.73;;
70899;SDS011;67902;52.154;5.430;2023-04-23T13:46:06;5.63;;;1.52;;
70899;SDS011;67902;52.154;5.430;2023-04-23T13:48:33;4.82;;;1.30;;
70899;SDS011;67902;52.154;5.430;2023-04-23T13:51:00;4.40;;;1.38;;
70899;SDS011;67902;52.154;5.430;2023-04-23T13:53:27;4.78;;;1.20;;
70899;SDS011;67902;52.154;5.430;2023-04-23T13:55:54;5.60;;;1.60;;
70899;SDS011;67902;52.154;5.430;2023-04-23T13:58:21;5.43;;;1.50;;
70899;SDS011;67902;52.154;5.430;2023-04-23T14:00:48;6.85;;;1.52;;
70899;SDS011;67902;52.154;5.430;2023-04-23T14:03:15;8.68;;;1.23;;
70899;SDS011;67902;52.154;5.430;2023-04-23T14:05:42;5.70;;;1.17;;
70899;SDS011;67902;52.154;5.430;2023-04-23T14:08:08;6.10;;;1.48;;
70899;SDS011;67902;52.154;5.430;2023-04-23T14:10:34;5.97;;;1.35;;
70899;SDS011;67902;52.154;5.430;2023-04-23T14:13:02;6.15;;;1.20;;
70899;SDS011;67902;52.154;5.430;2023-04-23T14:15:29;5.60;;;1.30;;
70899;SDS011;67902;52.154;5.430;2023-04-23T14:17:56;5.97;;;1.42;;
70899;SDS011;67902;52.154;5.430;2023-04-23T14:20:22;7.45;;;1.50;;
70899;SDS011;67902;52.154;5.430;2023-04-23T14:22:50;7.43;;;1.40;;
70899;SDS011;67902;52.154;5.430;2023-04-23T14:25:28;10.23;;;1.73;;
70899;SDS011;67902;52.154;5.430;2023-04-23T14:30:53;6.05;;;1.73;;
70899;SDS011;67902;52.154;5.430;2023-04-23T14:33:21;7.45;;;1.23;;
70899;SDS011;67902;52.154;5.430;2023-04-23T14:35:47;5.18;;;1.35;;
70899;SDS011;67902;52.154;5.430;2023-04-23T14:38:14;9.00;;;1.60;;
70899;SDS011;67902;52.154;5.430;2023-04-23T14:40:40;4.47;;;1.30;;
70899;SDS011;67902;52.154;5.430;2023-04-23T14:43:06;5.63;;;1.52;;
70899;SDS011;67902;52.154;5.430;2023-04-23T14:45:40;4.55;;;1.48;;
70899;SDS011;67902;52.154;5.430;2023-04-23T14:48:07;8.18;;;1.60;;
70899;SDS011;67902;52.154;5.430;2023-04-23T14:50:33;5.57;;;1.50;;
70899;SDS011;67902;52.154;5.430;2023-04-23T14:53:00;5.82;;;1.40;;
70899;SDS011;67902;52.154;5.430;2023-04-23T14:55:29;4.68;;;1.65;;
70899;SDS011;67902;52.154;5.430;2023-04-23T14:57:55;7.60;;;1.80;;
70899;SDS011;67902;52.154;5.430;2023-04-23T15:00:22;5.82;;;1.70;;
70899;SDS011;67902;52.154;5.430;2023-04-23T15:02:48;8.35;;;2.17;;
70899;SDS011;67902;52.154;5.430;2023-04-23T15:05:15;7.90;;;1.80;;
70899;SDS011;67902;52.154;5.430;2023-04-23T15:07:41;6.13;;;1.80;;
70899;SDS011;67902;52.154;5.430;2023-04-23T15:10:08;8.02;;;1.90;;